createdAt,value
2019-01-29T00:03:21.057Z,11.73
2019-01-29T00:08:27.870Z,10.27
2019-01-29T00:13:35.194Z,12.10
2019-01-29T00:18:42.878Z,8.67
2019-01-29T00:23:49.108Z,8.97
2019-01-29T00:28:57.873Z,10.83
2019-01-29T00:34:04.500Z,11.57
2019-01-29T00:39:10.882Z,10.83
2019-01-29T00:44:16.764Z,8.13
2019-01-29T00:49:22.769Z,8.97
2019-01-29T00:54:28.254Z,12.17
2019-01-29T00:59:34.360Z,10.17
2019-01-29T01:04:40.881Z,11.13
2019-01-29T01:09:56.817Z,7.43
2019-01-29T01:15:00.594Z,8.93
2019-01-29T01:20:07.911Z,10.90
2019-01-29T01:25:16.232Z,6.57
2019-01-29T01:30:23.238Z,8.07
2019-01-29T01:35:30.114Z,9.73
2019-01-29T01:40:37.049Z,8.23
2019-01-29T01:45:42.762Z,8.97
2019-01-29T01:51:40.667Z,10.37
2019-01-29T01:56:46.739Z,8.70
2019-01-29T02:01:51.786Z,11.20
2019-01-29T02:06:58.271Z,6.27
2019-01-29T02:12:03.890Z,7.53
2019-01-29T02:17:09.776Z,8.63
2019-01-29T02:22:15.355Z,6.80
2019-01-29T02:27:21.666Z,9.63
2019-01-29T02:32:29.916Z,9.77
2019-01-29T02:37:35.192Z,13.40
2019-01-29T02:42:40.977Z,8.70
2019-01-29T02:47:46.099Z,15.70
2019-01-29T02:52:53.821Z,13.63
2019-01-29T02:58:01.866Z,12.83
2019-01-29T03:09:12.615Z,15.60
2019-01-29T03:14:19.987Z,12.67
2019-01-29T03:19:26.161Z,17.57
2019-01-29T03:24:32.048Z,17.30
2019-01-29T03:29:48.946Z,14.33
2019-01-29T03:34:57.669Z,16.47
2019-01-29T03:40:05.874Z,17.03
2019-01-29T03:45:14.706Z,13.43
2019-01-29T03:50:22.175Z,13.43
2019-01-29T03:55:28.679Z,13.73
2019-01-29T04:00:35.391Z,11.83
2019-01-29T04:05:41.042Z,19.23
2019-01-29T04:10:46.785Z,17.43
2019-01-29T04:15:52.167Z,22.10
2019-01-29T04:20:58.004Z,20.97
2019-01-29T04:26:28.656Z,21.73
2019-01-29T04:31:35.207Z,24.33
2019-01-29T04:36:41.046Z,28.53
2019-01-29T04:41:48.010Z,23.93
2019-01-29T04:46:53.470Z,30.80
2019-01-29T04:52:00.710Z,30.43
2019-01-29T04:57:07.277Z,31.40
2019-01-29T05:02:14.777Z,32.60
2019-01-29T05:07:20.757Z,34.53
2019-01-29T05:12:28.483Z,35.03
2019-01-29T05:17:36.048Z,36.43
2019-01-29T05:22:42.626Z,39.17
2019-01-29T05:27:49.596Z,37.03
2019-01-29T05:32:55.665Z,33.97
2019-01-29T05:38:04.069Z,33.00
2019-01-29T05:43:09.234Z,32.90
2019-01-29T05:48:15.521Z,35.83
2019-01-29T05:53:22.281Z,33.80
2019-01-29T05:58:28.629Z,39.33
2019-01-29T06:03:34.375Z,33.23
2019-01-29T06:08:40.425Z,30.60
2019-01-29T06:13:46.089Z,35.97
2019-01-29T06:18:51.484Z,31.33
2019-01-29T06:23:57.581Z,30.33
2019-01-29T06:29:03.257Z,34.10
2019-01-29T06:34:10.541Z,30.63
2019-01-29T06:39:17.129Z,33.13
2019-01-29T06:44:24.482Z,33.27
2019-01-29T06:49:31.620Z,30.67
2019-01-29T06:54:38.335Z,34.10
2019-01-29T06:59:44.780Z,34.33
2019-01-29T07:04:49.921Z,33.57
2019-01-29T07:09:56.819Z,31.80
2019-01-29T07:15:02.833Z,29.87
2019-01-29T07:20:12.973Z,29.90
2019-01-29T07:25:19.184Z,33.47
2019-01-29T07:30:25.802Z,37.93
2019-01-29T07:35:31.656Z,35.17
2019-01-29T07:40:38.386Z,29.90
2019-01-29T07:45:45.169Z,33.73
2019-01-29T07:50:51.920Z,31.50
2019-01-29T07:55:58.285Z,33.33
2019-01-29T08:01:04.145Z,34.33
2019-01-29T08:06:11.216Z,37.93
2019-01-29T08:11:19.320Z,40.73
2019-01-29T08:16:25.725Z,38.83
2019-01-29T08:21:32.589Z,38.30
2019-01-29T08:26:39.298Z,41.13
2019-01-29T08:31:45.845Z,40.50
2019-01-29T08:36:51.785Z,48.10
2019-01-29T08:41:58.348Z,42.10
2019-01-29T08:47:04.518Z,40.80
2019-01-29T08:52:11.680Z,40.37
2019-01-29T08:57:16.752Z,45.13
2019-01-29T09:02:22.704Z,43.17
2019-01-29T09:07:28.114Z,39.77
2019-01-29T09:12:34.555Z,43.30
2019-01-29T09:17:40.043Z,36.23
2019-01-29T09:22:45.345Z,38.57
2019-01-29T09:27:52.421Z,40.53
2019-01-29T09:32:57.570Z,35.43
2019-01-29T09:38:03.032Z,36.03
2019-01-29T09:43:09.317Z,34.33
2019-01-29T09:48:14.728Z,35.40
2019-01-29T09:53:20.120Z,33.40
2019-01-29T09:58:27.347Z,35.67
2019-01-29T10:03:33.224Z,37.20
2019-01-29T10:08:40.037Z,38.17
2019-01-29T10:13:46.749Z,40.23
2019-01-29T10:18:53.902Z,39.10
2019-01-29T10:23:59.587Z,34.53
2019-01-29T10:29:05.342Z,35.87
2019-01-29T10:34:10.718Z,37.40
2019-01-29T10:39:17.513Z,30.07
2019-01-29T10:44:24.333Z,31.00
2019-01-29T10:49:29.707Z,28.73
2019-01-29T10:54:37.069Z,25.93
2019-01-29T10:59:45.966Z,20.97
2019-01-29T11:04:51.750Z,21.07
2019-01-29T11:09:57.622Z,21.53
2019-01-29T11:15:02.973Z,17.93
2019-01-29T11:20:12.834Z,18.30
2019-01-29T11:25:21.576Z,15.60
2019-01-29T11:30:29.183Z,15.80
2019-01-29T11:35:35.398Z,15.47
2019-01-29T11:40:42.940Z,16.70
2019-01-29T11:45:52.209Z,13.93
2019-01-29T11:50:59.081Z,12.53
2019-01-29T11:56:05.111Z,14.27
2019-01-29T12:01:13.218Z,13.50
2019-01-29T12:06:21.080Z,19.13
2019-01-29T12:11:26.516Z,14.63
2019-01-29T12:16:32.770Z,12.90
2019-01-29T12:21:39.072Z,12.70
2019-01-29T12:26:49.079Z,9.93
2019-01-29T12:31:55.837Z,13.47
2019-01-29T12:37:02.416Z,11.33
2019-01-29T12:42:09.033Z,8.50
2019-01-29T12:47:14.663Z,11.93
2019-01-29T12:52:42.852Z,10.83
2019-01-29T12:57:49.712Z,10.53
2019-01-29T13:02:57.933Z,7.37
2019-01-29T13:08:03.912Z,10.00
2019-01-29T13:13:12.541Z,8.33
2019-01-29T13:18:17.986Z,7.57
2019-01-29T13:23:23.908Z,6.23
2019-01-29T13:28:28.982Z,3.13
2019-01-29T13:33:35.814Z,5.60
2019-01-29T13:38:43.729Z,7.07
2019-01-29T13:43:49.613Z,4.63
2019-01-29T13:48:56.428Z,6.30
2019-01-29T13:54:02.656Z,4.00
2019-01-29T13:59:09.091Z,6.33
2019-01-29T14:04:16.237Z,10.20
2019-01-29T14:09:21.958Z,4.93
2019-01-29T14:14:28.727Z,6.67
2019-01-29T14:19:33.509Z,11.37
2019-01-29T14:24:43.493Z,5.73
2019-01-29T14:29:49.026Z,7.27
2019-01-29T14:34:55.495Z,5.83
2019-01-29T14:40:21.624Z,7.60
2019-01-29T14:45:28.028Z,5.13
2019-01-29T14:50:34.641Z,5.90
2019-01-29T14:55:42.659Z,6.53
2019-01-29T15:00:50.236Z,5.17
2019-01-29T15:05:56.573Z,6.37
2019-01-29T15:11:03.294Z,6.90
2019-01-29T15:16:35.652Z,4.53
2019-01-29T15:21:41.445Z,5.60
2019-01-29T15:26:47.209Z,5.37
2019-01-29T15:31:53.982Z,4.23
2019-01-29T15:37:00.456Z,6.27
2019-01-29T15:42:06.732Z,5.23
2019-01-29T15:47:12.508Z,8.40
2019-01-29T15:52:18.072Z,4.47
2019-01-29T15:57:23.805Z,4.87
2019-01-29T16:02:29.505Z,4.73
2019-01-29T16:07:34.536Z,4.80
2019-01-29T16:12:39.934Z,5.03
2019-01-29T16:17:46.133Z,6.47
2019-01-29T16:22:52.388Z,7.03
2019-01-29T16:27:58.380Z,8.10
2019-01-29T16:33:04.342Z,5.47
2019-01-29T16:38:10.150Z,5.73
2019-01-29T16:43:15.776Z,6.50
2019-01-29T16:48:20.918Z,5.83
2019-01-29T16:53:27.406Z,5.60
2019-01-29T16:58:33.304Z,7.43
2019-01-29T17:03:40.486Z,5.50
2019-01-29T17:09:13.910Z,7.83
2019-01-29T17:14:22.060Z,10.80
2019-01-29T17:19:27.993Z,6.50
2019-01-29T17:24:35.122Z,7.17
2019-01-29T17:29:43.191Z,7.17
2019-01-29T17:34:49.990Z,7.60
2019-01-29T17:39:56.073Z,8.90
2019-01-29T17:45:01.314Z,6.03
2019-01-29T17:50:12.009Z,9.43
2019-01-29T17:55:18.955Z,7.00
2019-01-29T18:00:29.354Z,7.60
2019-01-29T18:05:39.581Z,8.47
2019-01-29T18:10:48.124Z,7.00
2019-01-29T18:15:53.791Z,7.67
2019-01-29T18:21:00.291Z,7.50
2019-01-29T18:26:12.876Z,5.23
2019-01-29T18:31:18.877Z,8.90
2019-01-29T18:36:25.885Z,8.63
2019-01-29T18:41:31.474Z,7.00
2019-01-29T18:46:38.095Z,6.03
2019-01-29T18:51:47.528Z,5.80
2019-01-29T18:56:53.803Z,8.23
2019-01-29T19:01:59.829Z,7.53
2019-01-29T19:07:07.064Z,7.30
2019-01-29T19:12:14.343Z,5.83
2019-01-29T19:17:20.514Z,6.33
2019-01-29T19:22:27.614Z,6.90
2019-01-29T19:27:33.967Z,9.07
2019-01-29T19:32:39.310Z,7.40
2019-01-29T19:37:45.485Z,7.70
2019-01-29T19:42:51.701Z,7.97
2019-01-29T19:47:59.176Z,7.47
2019-01-29T19:53:05.396Z,8.30
2019-01-29T19:58:12.709Z,8.30
2019-01-29T20:03:20.594Z,7.07
2019-01-29T20:08:26.232Z,11.30
2019-01-29T20:13:32.479Z,8.60
2019-01-29T20:18:38.937Z,8.03
2019-01-29T20:23:46.029Z,10.53
2019-01-29T20:28:53.901Z,10.73
2019-01-29T20:34:02.201Z,9.50
2019-01-29T20:39:10.950Z,8.60
2019-01-29T20:44:16.419Z,8.83
2019-01-29T20:49:22.737Z,10.70
2019-01-29T20:54:31.437Z,9.07
2019-01-29T20:59:38.324Z,9.67
2019-01-29T21:04:44.785Z,8.70
2019-01-29T21:09:50.390Z,8.30
2019-01-29T21:14:56.909Z,7.00
2019-01-29T21:20:03.416Z,11.20
2019-01-29T21:25:09.296Z,11.20
2019-01-29T21:30:22.640Z,11.53
2019-01-29T21:35:29.117Z,9.20
2019-01-29T21:40:34.920Z,10.57
2019-01-29T21:45:41.747Z,11.60
2019-01-29T21:50:48.957Z,11.27
2019-01-29T21:55:55.813Z,10.80
2019-01-29T22:01:03.228Z,11.00
2019-01-29T22:06:09.204Z,13.10
2019-01-29T22:11:15.567Z,11.73
2019-01-29T22:16:22.392Z,9.30
2019-01-29T22:21:29.484Z,11.57
2019-01-29T22:26:34.910Z,7.40
2019-01-29T22:31:42.075Z,9.60
2019-01-29T22:36:47.686Z,9.80
2019-01-29T22:41:53.496Z,8.53
2019-01-29T22:47:00.109Z,8.80
2019-01-29T22:52:06.506Z,8.27
2019-01-29T22:57:13.884Z,8.37
2019-01-29T23:02:20.041Z,8.60
2019-01-29T23:07:55.921Z,7.83
2019-01-29T23:13:02.144Z,8.53
2019-01-29T23:18:08.560Z,7.77
2019-01-29T23:23:14.305Z,8.93
2019-01-29T23:28:21.225Z,7.43
2019-01-29T23:33:29.878Z,8.57
2019-01-29T23:38:37.739Z,8.00
2019-01-29T23:43:44.308Z,7.20
2019-01-29T23:48:50.813Z,10.80
2019-01-29T23:53:57.012Z,8.87
2019-01-29T23:59:02.861Z,10.37
